Terminal Aerodrome Forecast
Issued by NWS Sterling, VA

Current Version | Previous Version | Graphics & Text | Print | Product List | Glossary On
Versions: 1 2 3 4 5 6 7 8 9 10 11 12 13 14 15 16 17 18 19 20 21 22 23 24 25 26
000
FTUS41 KLWX 202051 AAA
TAFIAD
TAF AMD
KIAD 202051Z 2021/2124 18006KT P6SM SCT050 BKN250
     FM202200 19006KT P6SM VCTS BKN050CB
     FM210100 18005KT P6SM BKN250
     FM210900 20005KT 3SM BR BKN130
     FM211200 22004KT P6SM BKN070
     FM211500 25009KT P6SM BKN080
     FM211800 27008KT P6SM -SHRA BKN040
     FM212200 28009KT P6SM -SHRA SCT060=

USA.gov is the U.S. government's official web portal to all federal, state and local government web resources and services.